Kearns, Utah
Current Conditions -  °F | °C
As of 2:53 PM on Friday 24 Oct 2014 (Local Time) from KSLC Reporting Station
Clear Clear  
Wind Chill: 78°   Ceiling: Unl
Heat Index: 78°   Visibility: 10mi
Dew Point: 29°   Wind: 15mph
Humidity: 17%   Direction: 180°S
Pressure: 30.1"   Gusts: NA
Location:  40.65°N, 111.96°W
Report Text: KSLC 242053Z 18013KT 10SM CLR 26/M02 A3010 RMK AO2 SLP155 T02561017 58021
Loading
Personal Weather Stations






























Interactive Weather Map
Tropical Storm Tracking
New forecast layout! Learn more

10-Day Weather Forecast

Advertisements
Track Severe Weather on mobile